Time;durP1;ratioP1;P1;durP2;ratioP2;P2;SDS_P1;SDS_P2;PMS_P1;PMS_P2;Temp;Humidity;BMP_temperature;BMP_pressure;BME280_temperature;BME280_humidity;BME280_pressure;Samples;Min_cycle;Max_cycle;Signal;HPM_P1;HPM_P2
2023/05/09 00:01:57;;;;;;;20.55;17.02;;;;;;;14.86;100.00;101340.56;4981634;28;20209;-61
2023/05/09 00:04:23;;;;;;;22.02;16.98;;;;;;;14.88;100.00;101335.31;4987167;28;20666;-61
2023/05/09 00:06:48;;;;;;;22.80;16.77;;;;;;;14.92;100.00;101331.78;4991232;28;20042;-61
2023/05/09 00:09:13;;;;;;;22.13;17.33;;;;;;;14.93;100.00;101330.91;4983127;28;20042;-61
2023/05/09 00:11:39;;;;;;;19.45;16.13;;;;;;;14.95;100.00;101324.78;4984658;28;20116;-62
2023/05/09 00:14:06;;;;;;;22.38;16.15;;;;;;;14.95;100.00;101319.59;4981073;28;20514;-61
2023/05/09 00:16:32;;;;;;;24.67;17.42;;;;;;;14.97;100.00;101316.94;4991374;28;20987;-61
2023/05/09 00:18:58;;;;;;;23.63;18.17;;;;;;;14.93;100.00;101313.53;4981204;28;20034;-61
2023/05/09 00:21:24;;;;;;;23.13;16.77;;;;;;;14.90;100.00;101308.38;4980038;28;20165;-60
2023/05/09 00:23:49;;;;;;;22.70;16.55;;;;;;;14.85;100.00;101307.59;4981181;28;20050;-61
2023/05/09 00:26:15;;;;;;;22.33;16.38;;;;;;;14.82;100.00;101309.41;4974306;28;20042;-61
2023/05/09 00:28:40;;;;;;;20.65;16.40;;;;;;;14.76;100.00;101304.28;4990063;28;20053;-61
2023/05/09 00:31:05;;;;;;;23.17;15.95;;;;;;;14.71;100.00;101308.72;4987427;28;20041;-61
2023/05/09 00:33:31;;;;;;;22.15;16.70;;;;;;;14.67;100.00;101307.91;4990757;28;20125;-61
2023/05/09 00:35:56;;;;;;;23.38;17.67;;;;;;;14.65;100.00;101305.34;4986058;28;20053;-61
2023/05/09 00:38:22;;;;;;;24.00;19.13;;;;;;;14.64;100.00;101298.41;4989641;28;20038;-61
2023/05/09 00:40:48;;;;;;;26.92;18.95;;;;;;;14.65;100.00;101302.75;4980426;28;20045;-61
2023/05/09 00:43:13;;;;;;;26.15;18.50;;;;;;;14.64;100.00;101300.16;4979242;28;20042;-61
2023/05/09 00:45:38;;;;;;;24.17;19.17;;;;;;;14.62;100.00;101300.19;4988608;28;20676;-61
2023/05/09 00:48:04;;;;;;;25.42;19.10;;;;;;;14.62;100.00;101291.53;4981181;28;20065;-61
2023/05/09 00:50:30;;;;;;;26.98;19.25;;;;;;;14.61;100.00;101279.38;4981369;28;20050;-61
2023/05/09 00:52:56;;;;;;;24.63;20.35;;;;;;;14.60;100.00;101278.53;4980601;28;20052;-61
2023/05/09 00:55:22;;;;;;;27.92;21.48;;;;;;;14.58;100.00;101276.84;4974036;28;20492;-61
2023/05/09 00:57:47;;;;;;;28.67;21.45;;;;;;;14.58;100.00;101269.03;4985551;28;20038;-61
2023/05/09 01:00:13;;;;;;;30.35;21.85;;;;;;;14.55;100.00;101272.53;5008975;28;20137;-61
2023/05/09 01:02:45;;;;;;;27.27;19.42;;;;;;;14.55;100.00;101279.50;4980374;28;20079;-61
2023/05/09 01:05:11;;;;;;;22.45;18.02;;;;;;;14.55;100.00;101280.34;4980934;28;20045;-61
2023/05/09 01:08:16;;;;;;;23.30;17.58;;;;;;;14.58;100.00;101280.31;4991446;28;20042;-61
2023/05/09 01:11:10;;;;;;;32.85;22.80;;;;;;;14.62;100.00;101271.56;4983288;28;20034;-62
2023/05/09 01:13:50;;;;;;;28.23;20.42;;;;;;;14.67;100.00;101271.47;4988374;28;20042;-61
2023/05/09 01:16:29;;;;;;;27.83;19.52;;;;;;;14.71;100.00;101267.94;4979093;28;20848;-61
2023/05/09 01:19:03;;;;;;;29.50;21.35;;;;;;;14.75;100.00;101259.19;4980323;28;20037;-61
2023/05/09 01:21:32;;;;;;;30.08;22.38;;;;;;;14.77;100.00;101257.44;4986589;28;20041;-61
2023/05/09 01:24:09;;;;;;;32.80;21.95;;;;;;;14.81;100.00;101250.44;4979754;28;20129;-61
2023/05/09 01:26:40;;;;;;;30.80;22.50;;;;;;;14.83;100.00;101253.88;4981790;28;20030;-61
2023/05/09 01:29:33;;;;;;;30.75;21.33;;;;;;;14.87;100.00;101250.34;4980546;28;20085;-61
2023/05/09 01:32:03;;;;;;;27.70;21.48;;;;;;;14.90;100.00;101248.50;4978781;28;20080;-62
2023/05/09 01:34:31;;;;;;;31.85;20.77;;;;;;;14.94;100.00;101244.09;4984689;28;20072;-61
2023/05/09 01:36:59;;;;;;;28.90;21.80;;;;;;;14.97;100.00;101242.31;4989768;28;20108;-61
2023/05/09 01:39:26;;;;;;;30.30;20.92;;;;;;;15.01;100.00;101238.78;4979848;28;20046;-62
2023/05/09 01:41:55;;;;;;;30.13;20.50;;;;;;;15.03;100.00;101234.38;4980312;28;20107;-61
2023/05/09 01:44:22;;;;;;;28.45;21.50;;;;;;;15.03;100.00;101239.59;4972539;28;20034;-61
2023/05/09 01:46:51;;;;;;;30.48;21.38;;;;;;;15.03;100.00;101241.34;4977118;28;20042;-61
2023/05/09 01:49:19;;;;;;;28.23;20.33;;;;;;;15.02;99.89;101237.88;4978077;28;20038;-62
2023/05/09 01:51:46;;;;;;;30.10;22.20;;;;;;;15.02;100.00;101240.47;4977269;28;20065;-62
2023/05/09 01:54:13;;;;;;;31.55;22.65;;;;;;;15.00;100.00;101239.66;4972581;28;20039;-61
2023/05/09 01:56:41;;;;;;;26.90;20.52;;;;;;;14.99;100.00;101245.72;4977512;28;20034;-60
2023/05/09 01:59:07;;;;;;;26.35;20.95;;;;;;;14.97;99.97;101244.06;4968932;28;20041;-61
2023/05/09 02:01:33;;;;;;;28.95;21.20;;;;;;;14.99;100.00;101234.50;4979950;28;20066;-61
2023/05/09 02:03:59;;;;;;;29.17;21.40;;;;;;;14.97;100.00;101241.44;4990502;28;20042;-61
2023/05/09 02:06:28;;;;;;;27.77;21.30;;;;;;;14.98;100.00;101241.44;4978734;28;20045;-61
2023/05/09 02:08:54;;;;;;;33.47;22.75;;;;;;;14.95;100.00;101241.50;4973938;28;20154;-61
2023/05/09 02:11:20;;;;;;;29.58;22.20;;;;;;;14.96;100.00;101243.19;4983518;28;20030;-61
2023/05/09 02:13:45;;;;;;;32.85;23.08;;;;;;;14.97;99.97;101238.84;4983782;28;20037;-61
2023/05/09 02:16:11;;;;;;;28.63;20.30;;;;;;;15.00;100.00;101242.25;4989064;28;20049;-61
2023/05/09 02:18:37;;;;;;;28.23;20.98;;;;;;;15.02;100.00;101234.41;4984597;28;20546;-61
2023/05/09 02:21:02;;;;;;;32.00;22.85;;;;;;;15.02;100.00;101234.41;4983676;28;20124;-61
2023/05/09 02:23:28;;;;;;;30.70;22.77;;;;;;;15.01;100.00;101233.56;4978322;28;20113;-61
2023/05/09 02:25:54;;;;;;;28.38;22.38;;;;;;;15.02;100.00;101227.44;4981179;28;20062;-61
2023/05/09 02:28:21;;;;;;;31.25;22.33;;;;;;;15.03;100.00;101231.78;4977041;28;20039;-61
2023/05/09 02:30:49;;;;;;;32.55;23.30;;;;;;;15.04;100.00;101228.31;4976767;28;20585;-61
2023/05/09 02:33:15;;;;;;;33.65;24.85;;;;;;;15.03;100.00;101223.97;4985178;28;20105;-61
2023/05/09 02:35:43;;;;;;;31.52;24.00;;;;;;;15.02;100.00;101222.25;4985357;28;20080;-62
2023/05/09 02:38:08;;;;;;;29.75;22.90;;;;;;;15.03;100.00;101220.50;4980330;28;20026;-61
2023/05/09 02:40:34;;;;;;;35.67;22.90;;;;;;;15.04;100.00;101220.50;4988887;28;20758;-61
2023/05/09 02:42:59;;;;;;;29.45;21.58;;;;;;;15.07;100.00;101222.16;4988660;28;20042;-61
2023/05/09 02:45:25;;;;;;;28.85;21.83;;;;;;;15.08;100.00;101208.25;4978220;28;20039;-61
2023/05/09 02:47:51;;;;;;;36.17;22.92;;;;;;;15.09;100.00;101205.63;4978127;28;20578;-61
2023/05/09 02:50:16;;;;;;;34.50;22.15;;;;;;;15.10;100.00;101211.69;4984520;28;20520;-61
2023/05/09 02:52:41;;;;;;;35.00;23.13;;;;;;;15.11;100.00;101202.97;4983730;28;20158;-61
2023/05/09 02:55:08;;;;;;;32.65;22.88;;;;;;;15.11;100.00;101197.78;4980946;28;20042;-61
2023/05/09 02:57:34;;;;;;;33.78;21.90;;;;;;;15.12;100.00;101197.75;4993175;28;20403;-61
2023/05/09 02:59:59;;;;;;;27.00;20.08;;;;;;;15.14;100.00;101192.50;4977984;28;20050;-61
2023/05/09 03:02:25;;;;;;;24.42;18.67;;;;;;;15.17;100.00;101197.66;4986781;28;20069;-61
2023/05/09 03:04:51;;;;;;;37.33;23.63;;;;;;;15.20;100.00;101189.78;4979453;28;20034;-61
2023/05/09 03:07:16;;;;;;;32.53;23.42;;;;;;;15.23;100.00;101187.97;4985439;28;20042;-61
2023/05/09 03:09:41;;;;;;;29.38;23.45;;;;;;;15.29;100.00;101188.72;4976671;28;20281;-61
2023/05/09 03:12:07;;;;;;;31.75;24.17;;;;;;;15.32;100.00;101188.66;4976411;28;20042;-61
2023/05/09 03:14:32;;;;;;;30.38;22.88;;;;;;;15.34;99.99;101179.09;4979162;28;20042;-61
2023/05/09 03:16:57;;;;;;;30.45;22.77;;;;;;;15.35;100.00;101186.00;4977843;28;20047;-61
2023/05/09 03:19:23;;;;;;;33.67;24.95;;;;;;;15.38;100.00;101185.94;4984390;28;20042;-61
2023/05/09 03:21:48;;;;;;;30.05;21.27;;;;;;;15.40;99.72;101177.22;4982803;28;20054;-61
2023/05/09 03:24:14;;;;;;;29.88;22.17;;;;;;;15.43;99.80;101177.16;4978690;28;20041;-61
2023/05/09 03:26:39;;;;;;;31.67;23.48;;;;;;;15.46;99.75;101173.63;4972126;28;20038;-61
2023/05/09 03:29:04;;;;;;;28.92;21.95;;;;;;;15.48;99.41;101167.47;4975501;28;20142;-61
2023/05/09 03:31:30;;;;;;;33.47;24.17;;;;;;;15.51;99.26;101175.22;4977023;28;20161;-61
2023/05/09 03:33:56;;;;;;;30.92;22.30;;;;;;;15.55;99.03;101176.03;4983031;28;20183;-61
2023/05/09 03:36:22;;;;;;;27.38;19.85;;;;;;;15.57;98.86;101174.22;4982343;28;20050;-61
2023/05/09 03:38:47;;;;;;;25.38;19.17;;;;;;;15.59;98.67;101177.66;4986408;28;20038;-61
2023/05/09 03:41:15;;;;;;;29.13;21.90;;;;;;;15.60;98.35;101164.59;4974507;28;20047;-61
2023/05/09 03:43:40;;;;;;;27.08;21.20;;;;;;;15.62;98.19;101162.84;4978835;28;20034;-61
2023/05/09 03:46:06;;;;;;;33.58;24.92;;;;;;;15.59;98.40;101162.88;4985245;28;20439;-61
2023/05/09 03:48:31;;;;;;;34.90;23.08;;;;;;;15.56;98.37;101164.69;4979039;28;20515;-61
2023/05/09 03:50:56;;;;;;;30.15;23.10;;;;;;;15.53;98.42;101159.53;4979142;28;20411;-61
2023/05/09 03:53:22;;;;;;;31.40;23.50;;;;;;;15.52;98.50;101168.28;4982214;28;20058;-61
2023/05/09 03:55:47;;;;;;;30.30;22.10;;;;;;;15.48;99.02;101153.59;4981420;28;20065;-61
2023/05/09 03:58:13;;;;;;;30.88;22.25;;;;;;;15.46;99.06;101158.84;4977908;28;20081;-61
2023/05/09 04:00:40;;;;;;;27.58;21.45;;;;;;;15.46;99.60;101160.59;4982542;28;20042;-61
2023/05/09 04:03:05;;;;;;;33.83;23.48;;;;;;;15.45;99.52;101149.31;4976022;28;20750;-62
2023/05/09 04:05:32;;;;;;;37.38;26.13;;;;;;;15.44;99.84;101151.94;4980379;28;20045;-61
2023/05/09 04:07:58;;;;;;;33.63;24.20;;;;;;;15.43;99.62;101155.44;4981833;28;20046;-62
2023/05/09 04:10:24;;;;;;;40.30;26.10;;;;;;;15.38;99.75;101158.13;4975205;28;20515;-61
2023/05/09 04:12:49;;;;;;;37.35;24.05;;;;;;;15.36;100.00;101152.13;4982757;28;20034;-61
2023/05/09 04:15:15;;;;;;;33.70;24.30;;;;;;;15.33;100.00;101152.19;4984893;28;20046;-62
2023/05/09 04:17:40;;;;;;;34.25;24.17;;;;;;;15.29;100.00;101145.31;4973870;28;20296;-61
2023/05/09 04:20:07;;;;;;;34.67;24.42;;;;;;;15.28;100.00;101143.63;4976680;28;20039;-61
2023/05/09 04:22:32;;;;;;;32.15;23.75;;;;;;;15.27;100.00;101141.88;4979169;28;20165;-61
2023/05/09 04:24:58;;;;;;;32.70;25.40;;;;;;;15.26;100.00;101140.16;4978736;28;20046;-61
2023/05/09 04:27:23;;;;;;;32.67;22.02;;;;;;;15.27;100.00;101141.88;4973482;28;20456;-61
2023/05/09 04:29:49;;;;;;;31.90;23.25;;;;;;;15.27;100.00;101134.06;4976380;28;20042;-61
2023/05/09 04:32:14;;;;;;;34.25;23.08;;;;;;;15.26;100.00;101134.97;4982365;28;20054;-61
2023/05/09 04:34:40;;;;;;;31.13;23.05;;;;;;;15.28;100.00;101132.34;4977515;28;20196;-61
2023/05/09 04:37:05;;;;;;;29.52;23.95;;;;;;;15.30;100.00;101134.00;4975282;28;20042;-61
2023/05/09 04:39:30;;;;;;;33.13;22.85;;;;;;;15.33;100.00;101128.75;4976045;28;20080;-61
2023/05/09 04:41:56;;;;;;;32.20;22.13;;;;;;;15.36;100.00;101125.19;4973847;28;20046;-63
2023/05/09 04:44:22;;;;;;;40.70;24.55;;;;;;;15.38;100.00;101129.47;4980432;28;20056;-61
2023/05/09 04:46:49;;;;;;;30.95;23.30;;;;;;;15.43;99.96;101121.59;4978357;28;20096;-61
2023/05/09 04:49:14;;;;;;;34.28;21.95;;;;;;;15.47;99.96;101129.28;4977718;28;20100;-62
2023/05/09 04:51:40;;;;;;;33.30;23.50;;;;;;;15.51;99.59;101123.13;4972336;28;20061;-61
2023/05/09 04:54:05;;;;;;;30.63;22.85;;;;;;;15.57;98.83;101119.50;4979021;28;20129;-61
2023/05/09 04:56:31;;;;;;;31.20;22.45;;;;;;;15.62;98.69;101112.44;4979909;28;20121;-61
2023/05/09 04:58:56;;;;;;;29.30;20.27;;;;;;;15.67;98.95;101114.06;4977321;28;20042;-61
2023/05/09 05:01:21;;;;;;;33.92;23.98;;;;;;;15.72;98.28;101113.97;4981469;28;20694;-61
2023/05/09 05:03:47;;;;;;;30.30;23.20;;;;;;;15.78;97.97;101121.66;4974763;28;20065;-61
2023/05/09 05:06:12;;;;;;;34.63;24.73;;;;;;;15.83;97.53;101117.16;4978409;28;20044;-61
2023/05/09 05:08:37;;;;;;;34.28;24.58;;;;;;;15.88;97.13;101117.06;4977994;28;20030;-61
2023/05/09 05:11:03;;;;;;;29.77;23.08;;;;;;;15.92;96.98;101116.94;4979743;28;20034;-61
2023/05/09 05:13:28;;;;;;;31.38;22.27;;;;;;;15.96;96.66;101110.78;4975586;28;20041;-61
2023/05/09 05:15:53;;;;;;;31.17;22.85;;;;;;;15.98;96.91;101110.72;4976436;28;20734;-61
2023/05/09 05:18:19;;;;;;;29.33;22.25;;;;;;;16.02;96.49;101109.75;4977470;28;20049;-62
2023/05/09 05:20:44;;;;;;;31.55;21.63;;;;;;;16.06;95.99;101107.03;4975727;28;20042;-61
2023/05/09 05:23:10;;;;;;;29.75;22.17;;;;;;;16.10;95.85;101111.28;4976452;28;20054;-61
2023/05/09 05:25:35;;;;;;;33.03;23.98;;;;;;;16.17;95.45;101111.97;4983742;28;20711;-61
2023/05/09 05:28:01;;;;;;;34.13;24.13;;;;;;;16.22;94.89;101104.88;4975445;28;20563;-61
2023/05/09 05:30:26;;;;;;;30.83;21.65;;;;;;;16.30;94.59;101105.53;4978346;28;20049;-61
2023/05/09 05:32:51;;;;;;;30.73;21.92;;;;;;;16.35;93.75;101100.22;4978391;28;20103;-62
2023/05/09 05:35:18;;;;;;;30.30;22.50;;;;;;;16.45;93.66;101099.91;4981582;28;20042;-62
2023/05/09 05:37:43;;;;;;;32.85;21.85;;;;;;;16.55;93.22;101096.16;5014939;28;20816;-61
2023/05/09 05:40:09;;;;;;;34.55;22.88;;;;;;;16.65;92.39;101099.38;4983269;28;20045;-61
2023/05/09 05:42:35;;;;;;;32.50;23.23;;;;;;;16.71;91.92;101083.56;4985102;28;20030;-61
2023/05/09 05:45:04;;;;;;;27.50;19.17;;;;;;;16.78;91.68;101088.56;4976847;28;20554;-61
2023/05/09 05:47:31;;;;;;;26.75;20.23;;;;;;;16.83;91.11;101089.28;4970679;28;20773;-61
2023/05/09 05:49:57;;;;;;;27.98;20.48;;;;;;;16.90;90.73;101078.66;4967883;28;20046;-61
2023/05/09 05:52:23;;;;;;;29.25;21.35;;;;;;;17.01;90.81;101080.06;4966681;28;20042;-61
2023/05/09 05:54:48;;;;;;;26.83;19.88;;;;;;;17.13;90.02;101077.09;4969809;28;20048;-61
2023/05/09 05:57:13;;;;;;;26.30;20.35;;;;;;;17.18;89.45;101077.81;4966434;28;20100;-61
2023/05/09 05:59:39;;;;;;;26.27;20.17;;;;;;;17.24;89.49;101079.38;4980213;28;20048;-62
2023/05/09 06:02:04;;;;;;;28.02;20.77;;;;;;;17.33;89.07;101086.94;4982313;28;20100;-61
2023/05/09 06:04:30;;;;;;;27.05;19.95;;;;;;;17.34;88.81;101078.19;4978544;28;20145;-61
2023/05/09 06:06:56;;;;;;;27.45;20.52;;;;;;;17.34;88.48;101081.66;4974609;28;20401;-62
2023/05/09 06:09:21;;;;;;;27.63;19.90;;;;;;;17.33;87.82;101072.09;4977994;28;20139;-61
2023/05/09 06:11:47;;;;;;;28.05;19.88;;;;;;;17.35;88.28;101072.91;4978849;28;20040;-62
2023/05/09 06:14:12;;;;;;;26.05;19.77;;;;;;;17.31;88.28;101075.66;4977955;28;20049;-62
2023/05/09 06:16:38;;;;;;;27.13;19.42;;;;;;;17.34;88.32;101068.59;4972701;28;22281;-61
2023/05/09 06:19:03;;;;;;;24.17;18.85;;;;;;;17.32;88.16;101059.09;4980899;28;20151;-62
2023/05/09 06:21:29;;;;;;;25.77;17.55;;;;;;;17.41;88.63;101061.41;4982400;28;20154;-61
2023/05/09 06:23:54;;;;;;;21.90;18.05;;;;;;;17.44;88.06;101056.09;4980947;28;20034;-61
2023/05/09 06:26:21;;;;;;;26.42;18.65;;;;;;;17.55;87.74;101061.81;5011918;28;20614;-61
2023/05/09 06:28:46;;;;;;;25.05;18.27;;;;;;;17.68;86.88;101067.53;5011444;28;20082;-61
2023/05/09 06:31:11;;;;;;;22.77;17.95;;;;;;;17.86;85.99;101061.72;4978886;28;20118;-62
2023/05/09 06:33:37;;;;;;;25.10;18.05;;;;;;;18.03;85.63;101063.75;4981348;28;20042;-61
2023/05/09 06:36:02;;;;;;;22.77;17.50;;;;;;;18.06;84.47;101058.41;4985575;28;20061;-61
2023/05/09 06:38:28;;;;;;;22.77;16.90;;;;;;;18.10;84.54;101046.94;4983037;28;20038;-61
2023/05/09 06:40:53;;;;;;;20.33;15.82;;;;;;;18.24;84.47;101049.94;4978114;28;20038;-61
2023/05/09 06:43:19;;;;;;;26.02;17.70;;;;;;;18.19;83.83;101038.78;4982957;28;20088;-61
2023/05/09 06:45:44;;;;;;;20.80;16.00;;;;;;;18.26;83.64;101037.63;4980606;28;21582;-62
2023/05/09 06:48:09;;;;;;;22.38;17.10;;;;;;;18.41;83.54;101034.47;4987964;28;20051;-61
2023/05/09 06:50:35;;;;;;;19.13;15.05;;;;;;;18.43;82.21;101038.75;4984822;28;20064;-61
2023/05/09 06:53:00;;;;;;;16.83;13.25;;;;;;;18.47;80.93;101037.72;4984941;28;20042;-61
2023/05/09 06:55:25;;;;;;;16.10;12.52;;;;;;;18.57;80.87;101033.00;4983084;28;20035;-61
2023/05/09 06:57:51;;;;;;;14.88;11.90;;;;;;;18.64;80.27;101020.56;4973567;28;20080;-61
2023/05/09 07:00:17;;;;;;;15.70;10.57;;;;;;;18.73;79.81;101013.19;4985267;28;20099;-62
2023/05/09 07:02:42;;;;;;;13.88;11.77;;;;;;;18.69;78.60;101005.50;4984243;28;20041;-61
2023/05/09 07:05:08;;;;;;;13.18;10.75;;;;;;;18.88;79.13;101006.53;4986315;28;20117;-61
2023/05/09 07:07:35;;;;;;;14.07;11.05;;;;;;;19.05;78.59;100996.28;4988108;28;20054;-61
2023/05/09 07:10:03;;;;;;;14.20;11.25;;;;;;;19.15;77.27;100987.13;4987086;28;20042;-61
2023/05/09 07:12:30;;;;;;;10.73;8.65;;;;;;;19.24;76.72;100985.91;4975044;28;20042;-61
2023/05/09 07:14:55;;;;;;;9.70;8.10;;;;;;;19.34;74.77;100967.13;4980319;28;20042;-61
2023/05/09 07:17:21;;;;;;;15.13;8.35;;;;;;;19.44;74.27;100960.56;4986258;28;20038;-61
2023/05/09 07:19:47;;;;;;;9.00;7.28;;;;;;;19.47;73.57;100963.06;4982688;28;20042;-61
2023/05/09 07:22:12;;;;;;;7.22;6.25;;;;;;;19.62;72.46;100949.31;4977185;28;20089;-61
2023/05/09 07:24:38;;;;;;;6.65;5.80;;;;;;;19.63;73.10;100966.75;4984524;28;20399;-61
2023/05/09 07:27:03;;;;;;;8.85;5.82;;;;;;;19.78;72.42;100952.13;4979527;28;20134;-61
2023/05/09 07:29:28;;;;;;;6.82;5.60;;;;;;;19.87;72.25;100946.53;4979113;28;20415;-61
2023/05/09 07:31:54;;;;;;;7.80;5.38;;;;;;;19.90;71.28;100948.16;4981088;28;20046;-61
2023/05/09 07:34:19;;;;;;;10.50;5.85;;;;;;;19.87;70.40;100943.03;4982176;28;20077;-61
2023/05/09 07:36:45;;;;;;;6.15;5.15;;;;;;;19.95;70.64;100944.41;4979116;28;20132;-61
2023/05/09 07:39:10;;;;;;;7.75;5.47;;;;;;;20.00;70.80;100944.22;4976021;28;20037;-64
2023/05/09 07:41:36;;;;;;;5.75;5.10;;;;;;;19.97;70.18;100937.34;4980485;28;20022;-61
2023/05/09 07:44:02;;;;;;;7.47;4.25;;;;;;;20.05;69.67;100939.63;4972880;28;20046;-61
2023/05/09 07:46:27;;;;;;;4.60;3.50;;;;;;;20.12;68.46;100918.28;4990182;28;20681;-61
2023/05/09 07:48:52;;;;;;;5.35;3.08;;;;;;;20.13;67.61;100901.59;4980456;28;20046;-61
2023/05/09 07:51:18;;;;;;;3.33;2.75;;;;;;;20.34;67.48;100909.41;4981371;28;20136;-61
2023/05/09 07:53:43;;;;;;;5.25;3.08;;;;;;;20.42;66.87;100897.63;4977497;28;20041;-60
2023/05/09 07:56:08;;;;;;;5.75;2.92;;;;;;;20.60;66.20;100882.81;4983794;28;20050;-61
2023/05/09 07:58:34;;;;;;;3.33;2.40;;;;;;;20.82;65.60;100882.63;4989359;28;20057;-61
2023/05/09 08:00:59;;;;;;;3.28;2.60;;;;;;;20.96;65.31;100878.41;4984668;28;20039;-61
2023/05/09 08:03:25;;;;;;;5.35;2.45;;;;;;;20.87;63.58;100843.88;4985533;28;20816;-61
2023/05/09 08:05:54;;;;;;;8.00;2.25;;;;;;;21.00;63.97;100856.31;4986824;28;20041;-62
2023/05/09 08:08:20;;;;;;;2.80;2.00;;;;;;;21.06;63.70;100857.78;4980604;28;20030;-61
2023/05/09 08:10:45;;;;;;;2.85;2.00;;;;;;;21.00;63.41;100852.84;4980939;28;20049;-61
2023/05/09 08:13:11;;;;;;;4.55;2.08;;;;;;;20.99;63.20;100844.09;4982694;28;20034;-61
2023/05/09 08:15:36;;;;;;;3.40;1.80;;;;;;;20.80;62.22;100827.56;4984806;28;20030;-61
2023/05/09 08:18:01;;;;;;;2.92;2.45;;;;;;;20.56;62.71;100832.19;4976245;28;20101;-61
2023/05/09 08:20:27;;;;;;;4.43;1.77;;;;;;;20.65;62.37;100815.13;4981494;28;20669;-61
2023/05/09 08:22:52;;;;;;;3.13;1.88;;;;;;;20.67;60.55;100784.38;4978878;28;20046;-61
2023/05/09 08:25:19;;;;;;;1.90;1.42;;;;;;;20.81;61.43;100794.25;4980278;28;20675;-61
2023/05/09 08:27:44;;;;;;;3.53;2.00;;;;;;;20.85;61.11;100782.66;4973953;28;20046;-61
2023/05/09 08:30:11;;;;;;;2.95;1.50;;;;;;;20.92;61.34;100790.16;4981656;28;20049;-61
2023/05/09 08:32:36;;;;;;;2.60;1.67;;;;;;;21.03;60.87;100787.81;4987452;28;20053;-61
2023/05/09 08:35:02;;;;;;;4.53;2.53;;;;;;;21.04;60.68;100778.16;4984565;28;20197;-60
2023/05/09 08:37:28;;;;;;;2.40;1.50;;;;;;;21.02;61.39;100790.53;4972518;28;20042;-61
2023/05/09 08:39:53;;;;;;;2.17;1.35;;;;;;;21.07;60.81;100778.88;4974290;28;20125;-61
2023/05/09 08:42:21;;;;;;;3.47;1.67;;;;;;;20.99;59.63;100746.84;4979858;28;20953;-62
2023/05/09 08:44:47;;;;;;;2.38;1.77;;;;;;;20.96;60.89;100772.44;4979695;28;20062;-60
2023/05/09 08:47:14;;;;;;;2.63;1.40;;;;;;;20.96;58.55;100731.25;4983869;28;20145;-61
2023/05/09 08:49:40;;;;;;;3.13;1.40;;;;;;;21.01;57.84;100710.84;4991700;28;20813;-61
2023/05/09 08:52:06;;;;;;;3.28;1.80;;;;;;;21.07;57.36;100696.53;4980009;28;20073;-61
2023/05/09 08:54:32;;;;;;;1.52;1.35;;;;;;;21.20;57.49;100697.56;4978903;28;20046;-61
2023/05/09 08:56:59;;;;;;;4.38;1.83;;;;;;;21.41;57.70;100700.81;4986430;28;20034;-61
2023/05/09 08:59:25;;;;;;;2.85;1.90;;;;;;;21.51;57.63;100695.00;4976829;28;20463;-61
2023/05/09 09:01:52;;;;;;;2.85;1.40;;;;;;;21.68;57.38;100692.31;4975041;28;20053;-61
2023/05/09 09:04:18;;;;;;;3.15;2.00;;;;;;;21.80;57.67;100688.16;4975995;28;20392;-61
2023/05/09 09:06:44;;;;;;;5.00;1.80;;;;;;;21.79;57.10;100684.69;4980456;28;20088;-61
2023/05/09 09:09:11;;;;;;;2.05;1.65;;;;;;;21.98;57.02;100681.00;4978935;28;20677;-61
2023/05/09 09:11:39;;;;;;;3.05;1.60;;;;;;;22.04;56.21;100660.47;4979341;28;20034;-61
2023/05/09 09:14:14;;;;;;;4.85;1.60;;;;;;;22.04;55.76;100652.56;4980988;28;20480;-61
2023/05/09 09:16:42;;;;;;;2.35;1.65;;;;;;;22.06;56.63;100668.25;4985084;28;20042;-61
2023/05/09 09:19:12;;;;;;;2.58;1.83;;;;;;;22.00;56.64;100664.19;4977084;28;20062;-61
2023/05/09 09:21:40;;;;;;;2.92;1.80;;;;;;;22.10;56.87;100670.66;4980340;28;20518;-61
2023/05/09 09:24:06;;;;;;;3.97;1.90;;;;;;;22.10;57.34;100673.28;5007671;28;20037;-62
2023/05/09 09:26:32;;;;;;;4.90;2.10;;;;;;;22.21;56.98;100672.66;4981618;28;20388;-61
2023/05/09 09:28:57;;;;;;;2.72;1.98;;;;;;;22.32;57.03;100673.72;4978009;28;20035;-61
2023/05/09 09:31:31;;;;;;;4.13;2.20;;;;;;;22.16;56.15;100648.38;4982117;28;20073;-61
2023/05/09 09:34:01;;;;;;;2.90;1.60;;;;;;;22.17;56.14;100637.78;4983380;28;20687;-61
2023/05/09 09:36:28;;;;;;;5.57;1.67;;;;;;;21.94;55.67;100632.97;4986519;28;20034;-61
2023/05/09 09:39:03;;;;;;;2.58;1.75;;;;;;;22.04;55.70;100636.78;4985912;28;20041;-61
2023/05/09 09:41:33;;;;;;;3.17;1.85;;;;;;;22.11;57.44;100666.22;4957276;28;20055;-61
2023/05/09 09:44:05;;;;;;;3.35;1.55;;;;;;;22.32;56.97;100663.19;4958606;28;20039;-61
2023/05/09 09:46:42;;;;;;;5.20;1.50;;;;;;;22.50;55.67;100634.13;4963356;28;20050;-61
2023/05/09 09:49:16;;;;;;;3.17;1.77;;;;;;;22.55;54.54;100606.56;4963040;28;20049;-61
2023/05/09 09:51:43;;;;;;;3.08;1.67;;;;;;;22.52;53.26;100582.19;4960533;28;20069;-61
2023/05/09 09:54:11;;;;;;;3.22;1.40;;;;;;;22.51;54.00;100589.22;4959109;28;20026;-61
2023/05/09 09:56:40;;;;;;;3.90;2.22;;;;;;;22.67;53.61;100589.16;4961577;28;20093;-61
2023/05/09 09:59:25;;;;;;;2.08;1.70;;;;;;;22.87;54.74;100612.50;4967121;28;20747;-61
2023/05/09 10:01:53;;;;;;;;;;;;;;;22.87;54.96;100601.97;4954580;28;20038;-61
2023/05/09 10:04:18;;;;;;;2.45;1.98;;;;;;;22.98;53.95;100567.88;4966968;28;20438;-61
2023/05/09 10:06:55;;;;;;;4.63;2.15;;;;;;;22.87;54.01;100584.34;4962054;28;20108;-61
2023/05/09 10:09:25;;;;;;;5.03;1.95;;;;;;;22.96;55.63;100619.00;4958398;28;20042;-61
2023/05/09 10:11:52;;;;;;;4.47;2.00;;;;;;;22.90;56.60;100626.34;4960912;28;20054;-62
2023/05/09 10:14:20;;;;;;;2.60;2.25;;;;;;;23.10;55.30;100601.38;4964983;28;20058;-61
2023/05/09 10:16:47;;;;;;;3.08;2.35;;;;;;;23.30;55.64;100600.16;4963581;28;20039;-61
2023/05/09 10:19:16;;;;;;;4.88;2.00;;;;;;;23.47;53.95;100572.69;4960106;28;20216;-61
2023/05/09 10:21:42;;;;;;;6.80;2.25;;;;;;;23.54;52.41;100535.25;4959642;28;20074;-61
2023/05/09 10:24:09;;;;;;;4.57;2.10;;;;;;;23.58;53.46;100564.94;4953295;28;20129;-61
2023/05/09 10:26:36;;;;;;;3.08;2.08;;;;;;;23.47;53.43;100557.72;4969373;28;20037;-61
2023/05/09 10:29:09;;;;;;;2.58;2.13;;;;;;;23.44;52.89;100537.66;4967857;28;20046;-61
2023/05/09 10:31:36;;;;;;;3.95;1.85;;;;;;;23.49;52.52;100525.94;4974899;28;20043;-61
2023/05/09 10:34:08;;;;;;;2.17;1.63;;;;;;;23.63;52.22;100526.72;4974335;28;20050;-61
2023/05/09 10:36:33;;;;;;;3.20;1.90;;;;;;;23.67;52.00;100514.19;4964939;28;20043;-66
2023/05/09 10:38:59;;;;;;;6.22;2.25;;;;;;;23.57;50.65;100484.91;4964942;28;20046;-62
2023/05/09 10:41:25;;;;;;;2.33;1.83;;;;;;;23.57;50.97;100490.19;4956147;28;20039;-61
2023/05/09 10:43:51;;;;;;;2.95;1.80;;;;;;;23.54;53.02;100524.69;4973298;28;20043;-61
2023/05/09 10:46:17;;;;;;;3.05;1.80;;;;;;;23.67;52.19;100508.91;4976828;28;20065;-61
2023/05/09 10:48:43;;;;;;;3.47;1.70;;;;;;;23.53;49.65;100461.50;4975442;28;20046;-61
2023/05/09 10:51:10;;;;;;;3.33;2.13;;;;;;;23.55;51.63;100491.25;4966655;28;20073;-61
2023/05/09 10:53:49;;;;;;;2.17;1.63;;;;;;;23.51;49.32;100455.47;4964122;28;20074;-61
2023/05/09 10:56:39;;;;;;;4.60;1.88;;;;;;;23.59;49.48;100448.75;4965407;28;20076;-61
2023/05/09 10:59:05;;;;;;;6.50;1.88;;;;;;;23.95;50.46;100454.22;4963130;28;20122;-61
2023/05/09 11:01:36;;;;;;;2.40;1.88;;;;;;;24.19;50.22;100453.47;4973056;28;20039;-61
2023/05/09 11:04:13;;;;;;;2.22;1.83;;;;;;;24.24;50.91;100464.53;4963483;28;20042;-61
2023/05/09 11:06:49;;;;;;;4.38;1.83;;;;;;;24.22;50.16;100446.19;4973386;28;20439;-61
2023/05/09 11:09:28;;;;;;;2.65;2.42;;;;;;;23.71;52.70;100495.44;4956551;28;20764;-61
2023/05/09 11:11:59;;;;;;;3.15;2.35;;;;;;;23.60;53.12;100495.25;4970803;28;20046;-60